createdAt,value
2023-10-15T00:00:20.507Z,84.93
2023-10-15T00:02:49.372Z,84.14
2023-10-15T00:05:20.204Z,84.53
2023-10-15T00:07:50.833Z,84.76
2023-10-15T00:10:20.124Z,84.95
2023-10-15T00:12:48.808Z,84.86
2023-10-15T00:15:19.861Z,84.88
2023-10-15T00:17:52.122Z,85.12
2023-10-15T00:20:24.365Z,84.96
2023-10-15T00:22:52.059Z,84.76
2023-10-15T00:25:21.002Z,84.41
2023-10-15T00:27:57.827Z,84.67
2023-10-15T00:30:33.316Z,84.26
2023-10-15T00:33:04.363Z,84.43
2023-10-15T00:35:37.203Z,83.66
2023-10-15T00:38:17.999Z,84.00
2023-10-15T00:40:47.073Z,84.21
2023-10-15T00:43:19.718Z,84.18
2023-10-15T00:45:47.848Z,83.91
2023-10-15T00:48:35.449Z,84.08
2023-10-15T00:51:05.911Z,83.96
2023-10-15T00:53:33.266Z,84.12
2023-10-15T00:56:11.576Z,83.75
2023-10-15T00:58:55.319Z,83.61
2023-10-15T01:01:34.498Z,84.02
2023-10-15T01:04:02.025Z,84.01
2023-10-15T01:06:31.468Z,84.43
2023-10-15T01:09:10.214Z,84.29
2023-10-15T01:11:52.524Z,84.36
2023-10-15T01:14:34.403Z,84.70
2023-10-15T01:17:02.049Z,84.71
2023-10-15T01:19:34.916Z,84.97
2023-10-15T01:22:04.371Z,84.83
2023-10-15T01:24:35.517Z,84.68
2023-10-15T01:27:12.898Z,85.24
2023-10-15T01:29:45.437Z,85.21
2023-10-15T01:32:32.326Z,85.28
2023-10-15T01:35:00.787Z,85.18
2023-10-15T01:37:27.935Z,85.09
2023-10-15T01:40:22.510Z,85.09
2023-10-15T01:42:55.031Z,84.81
2023-10-15T01:45:32.670Z,84.99
2023-10-15T01:48:14.754Z,84.75
2023-10-15T01:50:53.194Z,84.50
2023-10-15T01:53:24.861Z,84.42
2023-10-15T01:56:00.313Z,84.90
2023-10-15T01:58:36.800Z,84.88
2023-10-15T02:01:32.902Z,85.14
2023-10-15T02:03:59.823Z,85.18
2023-10-15T02:06:26.439Z,85.33
2023-10-15T02:08:53.041Z,85.50
2023-10-15T02:11:22.735Z,85.31
2023-10-15T02:13:50.471Z,85.08
2023-10-15T02:16:30.631Z,85.28
2023-10-15T02:18:59.650Z,85.03
2023-10-15T02:21:26.344Z,85.12
2023-10-15T02:23:53.213Z,84.78
2023-10-15T02:26:24.701Z,84.80
2023-10-15T02:28:57.224Z,84.48
2023-10-15T02:31:24.113Z,84.26
2023-10-15T02:33:51.913Z,84.24
2023-10-15T02:36:18.791Z,84.19
2023-10-15T02:38:54.296Z,84.10
2023-10-15T02:41:22.183Z,84.20
2023-10-15T02:43:57.618Z,84.21
2023-10-15T02:46:26.266Z,84.20
2023-10-15T02:48:54.603Z,84.61
2023-10-15T02:51:24.582Z,84.56
2023-10-15T02:53:53.903Z,84.27
2023-10-15T02:56:22.076Z,84.46
2023-10-15T02:58:49.922Z,84.21
2023-10-15T03:01:20.476Z,83.85
2023-10-15T03:03:52.076Z,84.13
2023-10-15T03:06:20.198Z,84.38
2023-10-15T03:08:50.327Z,84.50
2023-10-15T03:11:20.811Z,84.26
2023-10-15T03:13:56.905Z,84.03
2023-10-15T03:16:28.163Z,84.19
2023-10-15T03:18:57.616Z,84.04
2023-10-15T03:21:27.539Z,84.72
2023-10-15T03:23:58.384Z,84.91
2023-10-15T03:26:25.359Z,84.76
2023-10-15T03:28:59.739Z,84.24
2023-10-15T03:31:29.421Z,84.86
2023-10-15T03:34:02.836Z,84.74
2023-10-15T03:36:35.406Z,83.89
2023-10-15T03:39:11.469Z,83.59
2023-10-15T03:41:41.269Z,83.96
2023-10-15T03:44:11.236Z,84.26
2023-10-15T03:46:38.920Z,84.36
2023-10-15T03:49:12.171Z,84.45
2023-10-15T03:51:49.806Z,84.08
2023-10-15T03:54:16.213Z,84.24
2023-10-15T03:56:44.722Z,84.66
2023-10-15T03:59:12.811Z,85.10
2023-10-15T04:01:48.413Z,84.97
2023-10-15T04:04:17.610Z,84.95
2023-10-15T04:06:54.968Z,85.33
2023-10-15T04:09:25.903Z,85.63
2023-10-15T04:11:52.423Z,85.47
2023-10-15T04:14:24.196Z,86.21
2023-10-15T04:16:51.927Z,86.55
2023-10-15T04:19:21.163Z,86.72
2023-10-15T04:21:48.024Z,86.71
2023-10-15T04:24:15.627Z,85.88
2023-10-15T04:26:43.642Z,85.75
2023-10-15T04:29:19.716Z,85.76
2023-10-15T04:31:53.107Z,85.52
2023-10-15T04:34:19.725Z,85.23
2023-10-15T04:36:46.751Z,85.60
2023-10-15T04:39:14.345Z,85.71
2023-10-15T04:41:44.321Z,86.13
2023-10-15T04:44:20.993Z,86.02
2023-10-15T04:46:47.732Z,85.26
2023-10-15T04:49:18.675Z,85.80
2023-10-15T04:51:45.920Z,85.92
2023-10-15T04:54:13.378Z,85.52
2023-10-15T04:56:42.951Z,85.47
2023-10-15T04:59:09.450Z,85.34
2023-10-15T05:01:35.997Z,85.21
2023-10-15T05:04:05.331Z,85.55
2023-10-15T05:06:31.714Z,85.39
2023-10-15T05:08:58.903Z,85.32
2023-10-15T05:11:25.356Z,84.97
2023-10-15T05:13:52.429Z,85.21
2023-10-15T05:16:19.986Z,84.76
2023-10-15T05:18:48.449Z,85.02
2023-10-15T05:21:14.933Z,85.28
2023-10-15T05:23:41.573Z,85.46
2023-10-15T05:26:08.132Z,85.58
2023-10-15T05:28:34.811Z,85.76
2023-10-15T05:31:02.095Z,85.42
2023-10-15T05:33:29.324Z,85.48
2023-10-15T05:35:58.268Z,85.90
2023-10-15T05:38:27.097Z,85.29
2023-10-15T05:40:58.441Z,85.07
2023-10-15T05:43:25.080Z,85.31
2023-10-15T05:45:51.729Z,85.81
2023-10-15T05:48:18.934Z,85.62
2023-10-15T05:50:50.169Z,85.65
2023-10-15T05:53:17.382Z,85.98
2023-10-15T05:55:44.183Z,86.00
2023-10-15T05:58:10.688Z,86.21
2023-10-15T06:00:40.842Z,85.90
2023-10-15T06:03:09.167Z,85.91
2023-10-15T06:05:36.248Z,86.15
2023-10-15T06:08:03.537Z,86.13
2023-10-15T06:10:30.894Z,86.00
2023-10-15T06:13:00.093Z,86.04
2023-10-15T06:15:27.220Z,85.59
2023-10-15T06:17:53.765Z,85.80
2023-10-15T06:20:21.029Z,86.12
2023-10-15T06:22:48.926Z,86.09
2023-10-15T06:25:20.191Z,86.10
2023-10-15T06:27:47.068Z,86.40
2023-10-15T06:30:19.341Z,86.39
2023-10-15T06:32:50.675Z,86.15
2023-10-15T06:35:21.453Z,85.73
2023-10-15T06:37:58.534Z,85.60
2023-10-15T06:40:25.943Z,85.47
2023-10-15T06:42:54.395Z,85.74
2023-10-15T06:45:21.970Z,85.82
2023-10-15T06:47:53.191Z,86.01
2023-10-15T06:50:24.112Z,86.40
2023-10-15T06:52:52.100Z,86.01
2023-10-15T06:55:21.428Z,86.40
2023-10-15T06:57:48.395Z,86.81
2023-10-15T07:00:22.615Z,86.62
2023-10-15T07:02:54.012Z,87.00
2023-10-15T07:05:27.401Z,86.93
2023-10-15T07:07:54.703Z,87.02
2023-10-15T07:10:22.569Z,86.61
2023-10-15T07:12:51.681Z,86.77
2023-10-15T07:15:19.249Z,86.80
2023-10-15T07:17:46.347Z,87.39
2023-10-15T07:20:18.048Z,87.54
2023-10-15T07:22:48.100Z,88.13
2023-10-15T07:25:16.227Z,87.82
2023-10-15T07:27:45.881Z,88.00
2023-10-15T07:30:13.824Z,88.18
2023-10-15T07:32:44.889Z,87.93
2023-10-15T07:35:13.075Z,87.85
2023-10-15T07:37:45.383Z,88.11
2023-10-15T07:40:22.789Z,88.39
2023-10-15T07:42:51.499Z,88.44
2023-10-15T07:45:19.886Z,88.75
2023-10-15T07:47:47.011Z,87.55
2023-10-15T07:50:19.907Z,87.70
2023-10-15T07:52:48.126Z,87.64
2023-10-15T07:55:14.896Z,87.82
2023-10-15T07:57:41.521Z,87.60
2023-10-15T08:00:14.141Z,87.39
2023-10-15T08:02:47.504Z,87.06
2023-10-15T08:05:14.550Z,86.91
2023-10-15T08:07:44.826Z,87.29
2023-10-15T08:10:12.162Z,87.49
2023-10-15T08:12:38.708Z,87.88
2023-10-15T08:15:08.039Z,87.48
2023-10-15T08:17:35.278Z,87.05
2023-10-15T08:20:01.921Z,87.06
2023-10-15T08:22:29.268Z,86.86
2023-10-15T08:24:56.853Z,86.77
2023-10-15T08:27:23.354Z,86.54
2023-10-15T08:29:49.805Z,86.69
2023-10-15T08:32:19.267Z,86.70
2023-10-15T08:34:46.220Z,86.73
2023-10-15T08:37:12.975Z,86.80
2023-10-15T08:39:40.818Z,87.21
2023-10-15T08:42:12.329Z,87.55
2023-10-15T08:44:41.042Z,87.45
2023-10-15T08:47:11.925Z,87.63
2023-10-15T08:49:46.801Z,87.00
2023-10-15T08:52:13.831Z,86.60
2023-10-15T08:54:42.104Z,86.68
2023-10-15T08:57:09.668Z,86.85
2023-10-15T08:59:39.549Z,87.17
2023-10-15T09:02:09.673Z,88.26
2023-10-15T09:04:37.074Z,88.56
2023-10-15T09:07:04.173Z,87.69
2023-10-15T09:09:33.521Z,87.78
2023-10-15T09:12:01.435Z,87.80
2023-10-15T09:14:38.047Z,86.40
2023-10-15T09:17:04.553Z,86.31
2023-10-15T09:19:33.104Z,85.35
2023-10-15T09:21:59.606Z,86.18
2023-10-15T09:24:28.352Z,86.90
2023-10-15T09:26:54.770Z,86.78
2023-10-15T09:29:21.474Z,87.17
2023-10-15T09:31:50.210Z,87.81
2023-10-15T09:34:17.389Z,87.96
2023-10-15T09:36:43.850Z,88.03
2023-10-15T09:39:14.036Z,87.50
2023-10-15T09:41:44.099Z,87.39
2023-10-15T09:44:15.849Z,87.94
2023-10-15T09:46:45.477Z,88.45
2023-10-15T09:49:13.851Z,88.31
2023-10-15T09:51:43.187Z,88.07
2023-10-15T09:54:12.627Z,88.17
2023-10-15T09:56:43.014Z,87.52
2023-10-15T09:59:09.690Z,87.27
2023-10-15T10:01:41.341Z,87.18
2023-10-15T10:04:26.771Z,86.76
2023-10-15T10:07:11.862Z,86.85
2023-10-15T10:09:52.606Z,86.55
2023-10-15T10:12:46.972Z,86.51
2023-10-15T10:15:25.153Z,86.65
2023-10-15T10:17:52.264Z,86.69
2023-10-15T10:20:21.101Z,87.01
2023-10-15T10:23:32.218Z,86.17
2023-10-15T10:26:14.840Z,86.25
2023-10-15T10:28:42.205Z,85.03
2023-10-15T10:31:09.242Z,84.63
2023-10-15T10:33:45.299Z,83.88
2023-10-15T10:36:16.751Z,83.75
2023-10-15T10:38:46.538Z,83.79
2023-10-15T10:41:25.991Z,83.80
2023-10-15T10:43:58.749Z,82.62
2023-10-15T10:46:44.631Z,82.36
2023-10-15T10:49:16.971Z,81.50
2023-10-15T10:52:03.461Z,81.40
2023-10-15T10:54:29.979Z,82.93
2023-10-15T10:56:57.872Z,83.57
2023-10-15T10:59:24.612Z,83.84
2023-10-15T11:01:51.205Z,85.11
2023-10-15T11:04:17.626Z,85.83
2023-10-15T11:06:49.681Z,86.63
2023-10-15T11:09:16.789Z,87.14
2023-10-15T11:11:45.328Z,87.00
2023-10-15T11:14:14.054Z,87.68
2023-10-15T11:16:43.788Z,88.08
2023-10-15T11:19:21.172Z,88.24
2023-10-15T11:21:48.322Z,88.29
2023-10-15T11:24:17.504Z,87.78
2023-10-15T11:26:45.959Z,88.24
2023-10-15T11:29:17.427Z,88.66
2023-10-15T11:31:45.831Z,87.93
2023-10-15T11:34:13.586Z,87.56
2023-10-15T11:36:44.329Z,87.92
2023-10-15T11:39:19.296Z,88.35
2023-10-15T11:41:53.143Z,86.92
2023-10-15T11:44:27.695Z,86.16
2023-10-15T11:46:56.101Z,86.47
2023-10-15T11:49:25.024Z,86.51
2023-10-15T11:51:56.427Z,86.27
2023-10-15T11:54:29.122Z,84.91
2023-10-15T11:56:56.143Z,85.46
2023-10-15T11:59:26.182Z,84.34
2023-10-15T12:01:53.180Z,83.96
2023-10-15T12:04:20.643Z,83.44
2023-10-15T12:06:50.945Z,83.55
2023-10-15T12:09:26.132Z,83.76
2023-10-15T12:11:53.509Z,81.77
2023-10-15T12:14:20.218Z,80.57
2023-10-15T12:16:46.948Z,79.36
2023-10-15T12:19:13.522Z,79.71
2023-10-15T12:21:42.801Z,78.44
2023-10-15T12:24:17.106Z,79.04
2023-10-15T12:26:44.781Z,77.52
2023-10-15T12:29:27.795Z,76.94
2023-10-15T12:31:59.824Z,76.74
2023-10-15T12:34:26.396Z,75.04
2023-10-15T12:36:54.026Z,74.02
2023-10-15T12:39:28.254Z,75.18
2023-10-15T12:41:55.498Z,74.88
2023-10-15T12:44:23.964Z,75.08
2023-10-15T12:46:52.230Z,75.52
2023-10-15T12:49:20.408Z,73.98
2023-10-15T12:51:47.129Z,72.61
2023-10-15T12:54:14.632Z,73.05
2023-10-15T12:56:41.353Z,73.04
2023-10-15T12:59:08.376Z,74.38
2023-10-15T13:01:35.230Z,73.39
2023-10-15T13:04:01.785Z,73.06
2023-10-15T13:06:28.386Z,73.28
2023-10-15T13:08:56.924Z,72.53
2023-10-15T13:11:23.992Z,72.55
2023-10-15T13:13:50.622Z,71.86
2023-10-15T13:16:19.439Z,72.75
2023-10-15T13:18:46.152Z,72.27
2023-10-15T13:21:12.650Z,73.12
2023-10-15T13:23:39.226Z,72.75
2023-10-15T13:26:09.530Z,72.54
2023-10-15T13:28:36.286Z,73.62
2023-10-15T13:31:03.455Z,73.23
2023-10-15T13:33:29.969Z,72.66
2023-10-15T13:35:56.528Z,73.36
2023-10-15T13:38:23.066Z,73.09
2023-10-15T13:40:49.953Z,73.15
2023-10-15T13:43:16.745Z,73.36
2023-10-15T13:45:43.399Z,72.91
2023-10-15T13:48:14.495Z,72.92
2023-10-15T13:50:43.657Z,73.13
2023-10-15T13:53:11.770Z,72.91
2023-10-15T13:55:38.235Z,72.89
2023-10-15T13:58:05.218Z,73.10
2023-10-15T14:00:32.898Z,73.54
2023-10-15T14:03:00.405Z,74.51
2023-10-15T14:05:28.853Z,74.18
2023-10-15T14:07:55.817Z,73.71
2023-10-15T14:10:22.583Z,73.94
2023-10-15T14:12:51.766Z,73.67
2023-10-15T14:15:21.394Z,73.75
2023-10-15T14:17:47.969Z,73.49
2023-10-15T14:20:18.165Z,72.70
2023-10-15T14:22:45.814Z,73.28
2023-10-15T14:25:13.732Z,72.17
2023-10-15T14:27:41.484Z,71.20
2023-10-15T14:30:11.545Z,70.91
2023-10-15T14:32:38.617Z,71.12
2023-10-15T14:35:07.342Z,71.03
2023-10-15T14:37:35.243Z,71.28
2023-10-15T14:40:01.796Z,71.00
2023-10-15T14:42:28.332Z,70.05
2023-10-15T14:44:55.292Z,70.26
2023-10-15T14:47:22.097Z,70.53
2023-10-15T14:49:48.743Z,70.37
2023-10-15T14:52:15.162Z,69.93
2023-10-15T14:54:41.725Z,70.79
2023-10-15T14:57:16.821Z,71.07
2023-10-15T14:59:43.262Z,71.00
2023-10-15T15:02:11.563Z,71.11
2023-10-15T15:04:38.082Z,71.47
2023-10-15T15:07:04.643Z,71.41
2023-10-15T15:09:31.152Z,71.68
2023-10-15T15:11:57.591Z,72.09
2023-10-15T15:14:24.191Z,72.62
2023-10-15T15:16:51.092Z,73.22
2023-10-15T15:19:17.748Z,73.04
2023-10-15T15:21:45.828Z,73.48
2023-10-15T15:24:16.717Z,72.93
2023-10-15T15:26:43.879Z,73.40
2023-10-15T15:29:11.653Z,74.30
2023-10-15T15:31:38.203Z,74.50
2023-10-15T15:34:04.805Z,74.02
2023-10-15T15:36:31.238Z,73.99
2023-10-15T15:38:57.958Z,73.19
2023-10-15T15:41:26.974Z,73.51
2023-10-15T15:43:53.641Z,73.56
2023-10-15T15:46:20.079Z,72.72
2023-10-15T15:48:47.887Z,71.81
2023-10-15T15:51:14.727Z,71.40
2023-10-15T15:53:43.945Z,71.52
2023-10-15T15:56:12.116Z,72.23
2023-10-15T15:58:38.973Z,72.95
2023-10-15T16:01:05.762Z,73.00
2023-10-15T16:03:49.950Z,73.23
2023-10-15T16:06:17.931Z,73.24
2023-10-15T16:08:44.904Z,74.50
2023-10-15T16:11:12.002Z,74.37
2023-10-15T16:13:40.016Z,73.66
2023-10-15T16:16:06.997Z,74.13
2023-10-15T16:18:33.440Z,73.60
2023-10-15T16:20:59.803Z,73.08
2023-10-15T16:23:26.720Z,73.19
2023-10-15T16:25:53.638Z,73.90
2023-10-15T16:28:20.384Z,74.07
2023-10-15T16:30:50.966Z,74.48
2023-10-15T16:33:18.350Z,75.24
2023-10-15T16:35:45.171Z,75.39
2023-10-15T16:38:15.152Z,75.74
2023-10-15T16:40:41.963Z,75.76
2023-10-15T16:43:14.296Z,75.96
2023-10-15T16:45:43.368Z,76.23
2023-10-15T16:48:12.356Z,76.34
2023-10-15T16:50:44.497Z,76.34
2023-10-15T16:53:13.773Z,76.73
2023-10-15T16:55:41.635Z,77.03
2023-10-15T16:58:08.601Z,77.49
2023-10-15T17:00:35.294Z,77.44
2023-10-15T17:03:04.824Z,77.75
2023-10-15T17:05:31.834Z,78.02
2023-10-15T17:07:58.495Z,77.42
2023-10-15T17:10:24.878Z,77.71
2023-10-15T17:12:52.318Z,78.08
2023-10-15T17:15:19.063Z,78.27
2023-10-15T17:17:45.879Z,78.47
2023-10-15T17:20:13.058Z,78.39
2023-10-15T17:22:41.754Z,78.54
2023-10-15T17:25:08.958Z,78.58
2023-10-15T17:27:35.423Z,78.40
2023-10-15T17:30:17.910Z,78.67
2023-10-15T17:32:45.575Z,78.66
2023-10-15T17:35:12.853Z,78.92
2023-10-15T17:37:40.308Z,79.09
2023-10-15T17:40:07.792Z,79.15
2023-10-15T17:42:37.105Z,79.23
2023-10-15T17:45:04.324Z,79.29
2023-10-15T17:47:30.811Z,79.20
2023-10-15T17:49:57.339Z,79.17
2023-10-15T17:52:23.722Z,79.36
2023-10-15T17:54:50.125Z,79.32
2023-10-15T17:57:17.603Z,79.42
2023-10-15T17:59:44.227Z,79.17
2023-10-15T18:02:10.678Z,79.37
2023-10-15T18:04:37.634Z,79.27
2023-10-15T18:07:04.128Z,79.25
2023-10-15T18:12:01.136Z,79.33
2023-10-15T18:14:27.599Z,79.40
2023-10-15T18:16:54.102Z,79.48
2023-10-15T18:19:20.573Z,79.57
2023-10-15T18:21:47.204Z,79.83
2023-10-15T18:24:13.881Z,79.78
2023-10-15T18:26:43.996Z,80.25
2023-10-15T18:29:12.394Z,80.24
2023-10-15T18:31:39.286Z,80.27
2023-10-15T18:34:05.769Z,80.43
2023-10-15T18:36:33.974Z,80.79
2023-10-15T18:39:00.623Z,80.99
2023-10-15T18:41:27.239Z,80.85
2023-10-15T18:43:54.671Z,81.01
2023-10-15T18:46:21.127Z,81.18
2023-10-15T18:48:47.676Z,80.96
2023-10-15T18:51:36.528Z,80.75
2023-10-15T18:54:04.548Z,81.11
2023-10-15T18:56:33.378Z,80.85
2023-10-15T18:59:01.857Z,81.24
2023-10-15T19:01:28.435Z,81.04
2023-10-15T19:03:55.107Z,81.12
2023-10-15T19:06:21.684Z,81.04
2023-10-15T19:08:49.439Z,81.21
2023-10-15T19:11:15.948Z,80.91
2023-10-15T19:13:43.145Z,80.87
2023-10-15T19:16:10.735Z,80.92
2023-10-15T19:18:38.607Z,80.91
2023-10-15T19:21:05.190Z,80.82
2023-10-15T19:23:31.816Z,81.01
2023-10-15T19:26:08.671Z,81.25
2023-10-15T19:28:37.406Z,81.63
2023-10-15T19:31:05.105Z,81.55
2023-10-15T19:33:33.125Z,81.18
2023-10-15T19:36:00.977Z,81.28
2023-10-15T19:38:28.245Z,81.51
2023-10-15T19:40:54.868Z,81.40
2023-10-15T19:43:22.475Z,81.19
2023-10-15T19:45:49.525Z,81.31
2023-10-15T19:48:16.555Z,81.54
2023-10-15T19:50:43.917Z,81.56
2023-10-15T19:53:10.499Z,81.80
2023-10-15T19:55:37.001Z,81.79
2023-10-15T19:58:03.738Z,81.78
2023-10-15T20:00:32.097Z,81.55
2023-10-15T20:02:58.772Z,81.49
2023-10-15T20:05:25.377Z,81.86
2023-10-15T20:07:53.220Z,81.67
2023-10-15T20:10:19.985Z,81.98
2023-10-15T20:12:49.099Z,81.94
2023-10-15T20:15:16.569Z,81.81
2023-10-15T20:17:44.101Z,81.91
2023-10-15T20:20:12.396Z,81.92
2023-10-15T20:22:41.620Z,81.60
2023-10-15T20:25:09.122Z,81.67
2023-10-15T20:27:43.392Z,81.82
2023-10-15T20:30:13.746Z,81.51
2023-10-15T20:35:16.455Z,81.32
2023-10-15T20:37:43.303Z,81.65
2023-10-15T20:40:16.919Z,81.55
2023-10-15T20:42:45.475Z,81.33
2023-10-15T20:45:16.033Z,81.48
2023-10-15T20:47:47.869Z,81.54
2023-10-15T20:50:16.206Z,81.25
2023-10-15T20:52:44.456Z,81.40
2023-10-15T20:55:12.319Z,81.27
2023-10-15T20:57:40.654Z,81.60
2023-10-15T21:00:13.321Z,81.27
2023-10-15T21:02:42.782Z,81.76
2023-10-15T21:05:10.651Z,81.53
2023-10-15T21:07:38.068Z,81.69
2023-10-15T21:10:06.382Z,81.53
2023-10-15T21:12:33.196Z,81.54
2023-10-15T21:15:00.007Z,81.51
2023-10-15T21:17:26.537Z,81.73
2023-10-15T21:19:55.989Z,81.81
2023-10-15T21:22:23.824Z,81.71
2023-10-15T21:24:50.458Z,81.66
2023-10-15T21:27:17.033Z,81.99
2023-10-15T21:29:44.217Z,82.13
2023-10-15T21:32:10.608Z,81.99
2023-10-15T21:34:37.042Z,81.98
2023-10-15T21:37:03.571Z,82.22
2023-10-15T21:39:30.125Z,82.26
2023-10-15T21:41:56.584Z,82.26
2023-10-15T21:44:24.362Z,82.41
2023-10-15T21:46:51.260Z,81.95
2023-10-15T21:49:17.688Z,82.10
2023-10-15T21:51:44.161Z,82.34
2023-10-15T21:54:10.992Z,82.41
2023-10-15T21:56:39.623Z,82.20
2023-10-15T21:59:06.446Z,82.15
2023-10-15T22:01:33.511Z,82.51
2023-10-15T22:04:00.122Z,82.59
2023-10-15T22:06:26.705Z,82.50
2023-10-15T22:08:53.228Z,82.29
2023-10-15T22:11:20.816Z,82.55
2023-10-15T22:13:59.842Z,82.75
2023-10-15T22:16:27.710Z,82.67
2023-10-15T22:18:54.264Z,82.84
2023-10-15T22:21:20.708Z,82.62
2023-10-15T22:23:48.748Z,82.79
2023-10-15T22:26:18.961Z,82.84
2023-10-15T22:28:46.987Z,82.76
2023-10-15T22:31:16.242Z,82.74
2023-10-15T22:33:44.353Z,82.86
2023-10-15T22:36:13.773Z,82.75
2023-10-15T22:38:41.292Z,82.81
2023-10-15T22:41:07.854Z,82.93
2023-10-15T22:43:34.874Z,82.73
2023-10-15T22:46:05.993Z,82.83
2023-10-15T22:48:32.878Z,82.82
2023-10-15T22:50:59.482Z,82.72
2023-10-15T22:53:27.313Z,82.59
2023-10-15T22:55:54.045Z,82.59
2023-10-15T22:58:21.218Z,82.66
2023-10-15T23:00:51.245Z,82.66
2023-10-15T23:03:18.319Z,82.63
2023-10-15T23:05:44.925Z,82.54
2023-10-15T23:08:13.894Z,82.46
2023-10-15T23:10:43.702Z,82.73
2023-10-15T23:13:10.775Z,82.76
2023-10-15T23:15:41.726Z,82.64
2023-10-15T23:18:10.210Z,82.85
2023-10-15T23:20:42.184Z,82.83
2023-10-15T23:23:19.017Z,82.74
2023-10-15T23:25:46.035Z,83.15
2023-10-15T23:28:12.413Z,82.99
2023-10-15T23:30:45.343Z,82.98
2023-10-15T23:33:12.347Z,83.05
2023-10-15T23:35:39.633Z,83.13
2023-10-15T23:38:08.487Z,83.34
2023-10-15T23:40:36.115Z,83.46
2023-10-15T23:43:05.977Z,83.81
2023-10-15T23:45:33.173Z,83.71
2023-10-15T23:48:12.484Z,83.69
2023-10-15T23:50:45.460Z,83.48
2023-10-15T23:53:42.659Z,83.87
2023-10-15T23:56:12.978Z,83.56
2023-10-15T23:58:42.760Z,84.06
